createdAt,value
2018-05-11T00:00:03.042Z,64.24
2018-05-11T00:02:31.372Z,64.17
2018-05-11T00:04:59.703Z,64.61
2018-05-11T00:07:28.049Z,64.86
2018-05-11T00:09:57.167Z,64.29
2018-05-11T00:12:25.542Z,64.52
2018-05-11T00:14:53.894Z,64.11
2018-05-11T00:17:22.957Z,64.01
2018-05-11T00:19:52.069Z,64.32
2018-05-11T00:22:21.079Z,64.81
2018-05-11T00:24:49.396Z,64.14
2018-05-11T00:27:17.711Z,63.79
2018-05-11T00:29:46.054Z,63.94
2018-05-11T00:32:14.363Z,64.74
2018-05-11T00:34:42.663Z,64.46
2018-05-11T00:37:13.161Z,64.74
2018-05-11T00:39:42.248Z,64.75
2018-05-11T00:42:10.570Z,64.48
2018-05-11T00:44:39.980Z,65.08
2018-05-11T00:47:08.292Z,64.70
2018-05-11T00:49:36.608Z,65.28
2018-05-11T00:52:04.953Z,64.40
2018-05-11T00:54:33.281Z,64.87
2018-05-11T00:57:01.607Z,65.05
2018-05-11T00:59:29.947Z,64.28
2018-05-11T01:01:59.044Z,64.53
2018-05-11T01:04:27.386Z,64.55
2018-05-11T01:06:56.312Z,64.42
2018-05-11T01:09:24.717Z,65.14
2018-05-11T01:11:53.016Z,65.47
2018-05-11T01:14:22.126Z,64.92
2018-05-11T01:16:50.471Z,65.06
2018-05-11T01:19:19.529Z,64.29
2018-05-11T01:21:47.876Z,64.43
2018-05-11T01:24:16.194Z,64.21
2018-05-11T01:26:44.508Z,64.33
2018-05-11T01:29:13.131Z,64.85
2018-05-11T01:31:41.427Z,64.83
2018-05-11T01:34:09.732Z,63.90
2018-05-11T01:36:38.833Z,63.46
2018-05-11T01:39:08.113Z,63.81
2018-05-11T01:41:36.430Z,63.80
2018-05-11T01:44:04.772Z,63.34
2018-05-11T01:46:33.099Z,63.85
2018-05-11T01:49:01.399Z,63.53
2018-05-11T01:51:30.035Z,64.59
2018-05-11T01:53:58.368Z,63.90
2018-05-11T01:56:26.681Z,63.84
2018-05-11T01:58:55.779Z,63.80
2018-05-11T02:01:24.837Z,63.95
2018-05-11T02:03:53.127Z,64.04
2018-05-11T02:06:21.467Z,64.22
2018-05-11T02:08:49.832Z,63.79
2018-05-11T02:11:18.144Z,64.74
2018-05-11T02:13:46.570Z,63.82
2018-05-11T02:16:15.647Z,63.33
2018-05-11T02:18:44.004Z,64.55
2018-05-11T02:21:12.292Z,64.74
2018-05-11T02:23:40.588Z,64.91
2018-05-11T02:26:08.895Z,65.48
2018-05-11T02:28:37.212Z,64.87
2018-05-11T02:31:05.527Z,64.61
2018-05-11T02:33:33.833Z,64.63
2018-05-11T02:36:02.492Z,64.85
2018-05-11T02:38:30.832Z,64.84
2018-05-11T02:40:59.255Z,65.21
2018-05-11T02:43:28.340Z,64.89
2018-05-11T02:45:56.639Z,64.83
2018-05-11T02:48:24.998Z,64.96
2018-05-11T02:50:54.090Z,64.14
2018-05-11T02:53:22.403Z,63.70
2018-05-11T02:55:50.717Z,63.94
2018-05-11T02:58:19.167Z,64.39
2018-05-11T03:00:47.496Z,64.16
2018-05-11T03:03:15.807Z,64.48
2018-05-11T03:05:44.158Z,64.47
2018-05-11T03:08:12.463Z,64.21
2018-05-11T03:10:40.870Z,64.35
2018-05-11T03:13:09.193Z,63.96
2018-05-11T03:15:37.497Z,64.49
2018-05-11T03:18:06.568Z,64.87
2018-05-11T03:20:35.364Z,65.08
2018-05-11T03:23:03.680Z,64.51
2018-05-11T03:25:32.037Z,64.66
2018-05-11T03:28:01.155Z,64.32
2018-05-11T03:30:29.468Z,64.62
2018-05-11T03:32:57.802Z,64.52
2018-05-11T03:35:26.163Z,64.71
2018-05-11T03:37:55.266Z,65.29
2018-05-11T03:40:24.353Z,65.37
2018-05-11T03:42:53.559Z,65.46
2018-05-11T03:45:22.631Z,65.23
2018-05-11T03:47:50.943Z,65.17
2018-05-11T03:50:19.276Z,64.43
2018-05-11T03:52:47.592Z,64.54
2018-05-11T03:55:16.686Z,65.09
2018-05-11T03:57:45.812Z,64.91
2018-05-11T04:00:14.146Z,64.79
2018-05-11T04:03:01.175Z,65.93
2018-05-11T04:05:47.721Z,65.16
2018-05-11T04:08:34.707Z,65.39
2018-05-11T04:11:03.010Z,65.66
2018-05-11T04:13:31.340Z,66.08
2018-05-11T04:15:59.697Z,66.01
2018-05-11T04:18:28.020Z,66.18
2018-05-11T04:20:56.362Z,66.09
2018-05-11T04:23:24.967Z,66.32
2018-05-11T04:25:53.280Z,66.27
2018-05-11T04:28:21.624Z,66.08
2018-05-11T04:30:50.762Z,65.64
2018-05-11T04:33:19.064Z,66.75
2018-05-11T04:35:47.371Z,66.79
2018-05-11T04:38:15.724Z,66.25
2018-05-11T04:40:44.062Z,66.30
2018-05-11T04:43:12.383Z,66.35
2018-05-11T04:45:41.308Z,66.27
2018-05-11T04:48:09.647Z,65.81
2018-05-11T04:50:37.970Z,65.47
2018-05-11T04:53:07.079Z,65.42
2018-05-11T04:55:35.404Z,65.46
2018-05-11T04:58:03.734Z,65.87
2018-05-11T05:00:32.097Z,65.68
2018-05-11T05:03:01.181Z,65.75
2018-05-11T05:05:30.279Z,65.98
2018-05-11T05:07:58.731Z,65.40
2018-05-11T05:10:27.823Z,66.21
2018-05-11T05:12:56.191Z,65.70
2018-05-11T05:15:25.304Z,66.03
2018-05-11T05:17:53.623Z,65.79
2018-05-11T05:20:22.733Z,66.03
2018-05-11T05:22:51.088Z,65.28
2018-05-11T05:25:19.433Z,66.10
2018-05-11T05:27:47.755Z,66.67
2018-05-11T05:30:16.681Z,65.65
2018-05-11T05:32:45.005Z,65.33
2018-05-11T05:35:13.336Z,64.94
2018-05-11T05:37:41.690Z,64.87
2018-05-11T05:40:10.802Z,64.61
2018-05-11T05:42:39.132Z,63.65
2018-05-11T05:45:07.484Z,63.44
2018-05-11T05:47:35.809Z,63.28
2018-05-11T05:50:04.141Z,63.01
2018-05-11T05:52:32.707Z,62.58
2018-05-11T05:55:01.051Z,62.26
2018-05-11T05:57:30.149Z,62.05
2018-05-11T05:59:58.634Z,61.44
2018-05-11T06:02:27.667Z,61.10
2018-05-11T06:04:56.065Z,60.25
2018-05-11T06:07:24.475Z,59.75
2018-05-11T06:09:52.814Z,59.40
2018-05-11T06:12:21.281Z,59.23
2018-05-11T06:14:49.820Z,59.90
2018-05-11T06:17:18.147Z,58.80
2018-05-11T06:19:46.475Z,58.30
2018-05-11T06:22:14.843Z,57.96
2018-05-11T06:24:43.165Z,58.38
2018-05-11T06:27:11.502Z,57.64
2018-05-11T06:29:39.853Z,57.27
2018-05-11T06:32:08.192Z,56.61
2018-05-11T06:34:37.354Z,56.16
2018-05-11T06:37:05.690Z,55.77
2018-05-11T06:39:34.002Z,54.63
2018-05-11T06:42:02.328Z,54.05
2018-05-11T06:44:30.691Z,54.15
2018-05-11T06:46:59.784Z,52.98
2018-05-11T06:49:28.180Z,52.66
2018-05-11T06:51:57.275Z,52.96
2018-05-11T06:54:26.407Z,52.99
2018-05-11T06:56:54.743Z,52.44
2018-05-11T06:59:23.703Z,51.08
2018-05-11T07:01:52.040Z,51.69
2018-05-11T07:04:20.371Z,50.84
2018-05-11T07:06:48.719Z,50.24
2018-05-11T07:09:18.066Z,50.23
2018-05-11T07:11:46.365Z,49.69
2018-05-11T07:14:14.725Z,49.38
2018-05-11T07:16:43.208Z,48.62
2018-05-11T07:19:11.535Z,47.63
2018-05-11T07:21:40.930Z,47.56
2018-05-11T07:24:09.311Z,46.52
2018-05-11T07:26:37.642Z,47.37
2018-05-11T07:29:06.744Z,45.96
2018-05-11T07:31:35.893Z,47.07
2018-05-11T07:34:04.244Z,47.06
2018-05-11T07:36:32.628Z,48.10
2018-05-11T07:39:01.046Z,47.70
2018-05-11T07:41:29.384Z,46.81
2018-05-11T07:43:58.351Z,45.98
2018-05-11T07:46:26.674Z,46.34
2018-05-11T07:48:55.768Z,44.92
2018-05-11T07:51:24.136Z,45.32
2018-05-11T07:53:52.522Z,47.00
2018-05-11T07:56:20.861Z,47.19
2018-05-11T07:58:49.974Z,46.17
2018-05-11T08:01:19.080Z,46.62
2018-05-11T08:03:47.420Z,45.89
2018-05-11T08:06:15.934Z,45.59
2018-05-11T08:08:45.012Z,45.16
2018-05-11T08:11:13.334Z,45.17
2018-05-11T08:13:41.682Z,44.58
2018-05-11T08:16:10.023Z,44.77
2018-05-11T08:18:38.368Z,44.07
2018-05-11T08:21:06.724Z,44.24
2018-05-11T08:23:35.838Z,44.26
2018-05-11T08:26:04.161Z,44.28
2018-05-11T08:28:32.571Z,43.26
2018-05-11T08:31:01.645Z,43.08
2018-05-11T08:33:29.948Z,41.83
2018-05-11T08:35:59.122Z,42.06
2018-05-11T08:38:27.404Z,42.18
2018-05-11T08:40:55.789Z,41.34
2018-05-11T08:43:24.919Z,41.52
2018-05-11T08:45:53.272Z,40.47
2018-05-11T08:48:21.599Z,40.88
2018-05-11T08:50:50.219Z,40.71
2018-05-11T08:53:18.538Z,40.52
2018-05-11T08:55:46.960Z,40.56
2018-05-11T08:58:15.261Z,40.07
2018-05-11T09:00:43.603Z,39.54
2018-05-11T09:03:11.947Z,39.49
2018-05-11T09:05:40.297Z,38.73
2018-05-11T09:08:13.463Z,38.66
2018-05-11T09:10:42.367Z,38.27
2018-05-11T09:13:10.674Z,37.54
2018-05-11T09:15:38.995Z,38.20
2018-05-11T09:18:07.340Z,38.29
2018-05-11T09:20:36.423Z,38.10
2018-05-11T09:23:04.746Z,36.64
2018-05-11T09:25:33.091Z,36.75
2018-05-11T09:28:02.175Z,37.48
2018-05-11T09:30:31.279Z,36.74
2018-05-11T09:33:00.671Z,37.23
2018-05-11T09:35:29.072Z,36.49
2018-05-11T09:37:57.430Z,37.27
2018-05-11T09:40:26.552Z,36.86
2018-05-11T09:42:54.913Z,36.46
2018-05-11T09:45:23.248Z,37.37
2018-05-11T09:47:51.663Z,36.08
2018-05-11T09:50:20.009Z,35.87
2018-05-11T09:52:48.323Z,34.92
2018-05-11T09:55:17.124Z,33.88
2018-05-11T09:57:45.460Z,34.03
2018-05-11T10:00:13.815Z,33.70
2018-05-11T10:02:42.143Z,34.37
2018-05-11T10:05:10.483Z,34.68
2018-05-11T10:07:38.833Z,35.09
2018-05-11T10:10:07.950Z,33.96
2018-05-11T10:12:36.275Z,33.00
2018-05-11T10:15:04.617Z,31.33
2018-05-11T10:17:33.305Z,31.15
2018-05-11T10:20:01.630Z,32.26
2018-05-11T10:22:30.775Z,32.47
2018-05-11T10:24:59.135Z,32.08
2018-05-11T10:27:27.490Z,31.55
2018-05-11T10:29:56.575Z,30.30
2018-05-11T10:32:24.925Z,31.43
2018-05-11T10:34:53.291Z,34.53
2018-05-11T10:37:21.592Z,33.60
2018-05-11T10:39:50.166Z,31.39
2018-05-11T10:42:18.515Z,31.36
2018-05-11T10:44:46.873Z,32.55
2018-05-11T10:47:16.022Z,31.11
2018-05-11T10:49:44.498Z,31.16
2018-05-11T10:52:12.801Z,30.34
2018-05-11T10:54:41.147Z,30.13
2018-05-11T10:57:09.479Z,30.86
2018-05-11T10:59:38.592Z,31.92
2018-05-11T11:02:07.923Z,31.92
2018-05-11T11:04:36.267Z,32.91
2018-05-11T11:07:05.377Z,31.73
2018-05-11T11:09:33.779Z,32.29
2018-05-11T11:12:02.132Z,32.19
2018-05-11T11:14:30.476Z,31.16
2018-05-11T11:16:58.843Z,31.22
2018-05-11T11:19:27.198Z,31.24
2018-05-11T11:21:55.562Z,31.59
2018-05-11T11:24:24.286Z,31.11
2018-05-11T11:26:52.626Z,30.60
2018-05-11T11:29:20.966Z,29.84
2018-05-11T11:31:50.156Z,28.99
2018-05-11T11:34:19.284Z,29.92
2018-05-11T11:36:47.645Z,29.42
2018-05-11T11:39:15.968Z,29.27
2018-05-11T11:41:45.212Z,29.58
2018-05-11T11:44:13.492Z,28.93
2018-05-11T11:46:42.230Z,29.06
2018-05-11T11:49:10.651Z,28.55
2018-05-11T11:51:39.062Z,27.44
2018-05-11T11:54:08.189Z,28.90
2018-05-11T11:56:36.534Z,29.11
2018-05-11T11:59:05.624Z,29.00
2018-05-11T12:01:35.168Z,28.20
2018-05-11T12:04:03.472Z,28.37
2018-05-11T12:06:31.794Z,29.76
2018-05-11T12:09:01.161Z,29.56
2018-05-11T12:11:29.475Z,29.37
2018-05-11T12:13:57.815Z,27.54
2018-05-11T12:16:26.157Z,27.47
2018-05-11T12:18:54.475Z,27.54
2018-05-11T12:21:22.786Z,26.93
2018-05-11T12:23:51.884Z,28.02
2018-05-11T12:26:20.945Z,28.38
2018-05-11T12:28:49.288Z,28.50
2018-05-11T12:31:17.934Z,28.40
2018-05-11T12:33:47.023Z,28.55
2018-05-11T12:36:15.378Z,28.48
2018-05-11T12:38:43.739Z,28.96
2018-05-11T12:41:12.131Z,28.68
2018-05-11T12:43:40.486Z,29.16
2018-05-11T12:46:08.869Z,29.44
2018-05-11T12:48:37.225Z,29.47
2018-05-11T12:51:05.576Z,29.51
2018-05-11T12:53:34.213Z,29.90
2018-05-11T12:56:02.620Z,29.55
2018-05-11T12:58:30.967Z,30.29
2018-05-11T13:00:59.356Z,31.53
2018-05-11T13:03:27.724Z,31.30
2018-05-11T13:05:56.072Z,32.45
2018-05-11T13:08:25.195Z,32.12
2018-05-11T13:10:53.795Z,30.13
2018-05-11T13:13:22.195Z,29.90
2018-05-11T13:15:50.932Z,31.00
2018-05-11T13:18:19.285Z,30.13
2018-05-11T13:20:47.661Z,30.80
2018-05-11T13:23:16.037Z,32.00
2018-05-11T13:25:44.400Z,31.09
2018-05-11T13:28:12.744Z,30.96
2018-05-11T13:30:41.186Z,31.40
2018-05-11T13:33:09.464Z,32.31
2018-05-11T13:35:38.620Z,32.45
2018-05-11T13:38:07.278Z,32.48
2018-05-11T13:40:35.654Z,32.16
2018-05-11T13:43:04.019Z,31.78
2018-05-11T13:45:32.396Z,31.19
2018-05-11T13:48:01.515Z,31.62
2018-05-11T13:50:29.837Z,31.39
2018-05-11T13:52:58.172Z,31.25
2018-05-11T13:55:26.528Z,30.10
2018-05-11T13:57:55.643Z,30.25
2018-05-11T14:00:24.078Z,30.77
2018-05-11T14:02:53.352Z,30.61
2018-05-11T14:05:21.720Z,30.52
2018-05-11T14:07:50.074Z,29.98
2018-05-11T14:10:18.784Z,30.40
2018-05-11T14:12:47.050Z,30.20
2018-05-11T14:15:15.427Z,29.99
2018-05-11T14:17:43.844Z,29.25
2018-05-11T14:20:12.167Z,29.57
2018-05-11T14:22:41.543Z,29.35
2018-05-11T14:25:09.861Z,30.80
2018-05-11T14:27:38.944Z,30.39
2018-05-11T14:30:07.315Z,31.17
2018-05-11T14:32:36.421Z,31.40
2018-05-11T14:35:05.512Z,31.98
2018-05-11T14:37:34.651Z,31.92
2018-05-11T14:40:03.043Z,32.34
2018-05-11T14:42:31.380Z,32.85
2018-05-11T14:45:00.755Z,33.31
2018-05-11T14:47:29.129Z,34.02
2018-05-11T14:49:57.480Z,33.79
2018-05-11T14:52:25.883Z,33.87
2018-05-11T14:54:54.207Z,33.06
2018-05-11T14:57:22.585Z,33.36
2018-05-11T14:59:50.968Z,33.08
2018-05-11T15:02:19.298Z,33.69
2018-05-11T15:04:47.651Z,33.59
2018-05-11T15:07:16.260Z,33.96
2018-05-11T15:09:44.577Z,34.12
2018-05-11T15:12:12.964Z,34.54
2018-05-11T15:14:41.345Z,33.92
2018-05-11T15:17:09.676Z,33.69
2018-05-11T15:19:38.045Z,33.96
2018-05-11T15:22:06.424Z,34.07
2018-05-11T15:24:34.764Z,34.48
2018-05-11T15:27:03.123Z,34.95
2018-05-11T15:29:31.800Z,34.62
2018-05-11T15:32:00.138Z,34.25
2018-05-11T15:34:28.483Z,34.04
2018-05-11T15:36:57.620Z,34.29
2018-05-11T15:39:25.932Z,34.23
2018-05-11T15:41:54.270Z,34.62
2018-05-11T15:44:22.642Z,34.44
2018-05-11T15:46:50.969Z,33.92
2018-05-11T15:49:20.090Z,34.42
2018-05-11T15:51:48.959Z,34.02
2018-05-11T15:54:18.108Z,34.05
2018-05-11T15:56:46.448Z,34.06
2018-05-11T15:59:15.559Z,33.95
2018-05-11T16:01:43.907Z,35.10
2018-05-11T16:04:12.232Z,35.24
2018-05-11T16:06:40.575Z,34.93
2018-05-11T16:09:09.667Z,35.06
2018-05-11T16:11:38.770Z,34.35
2018-05-11T16:14:08.066Z,35.26
2018-05-11T16:16:37.171Z,34.90
2018-05-11T16:19:06.326Z,36.16
2018-05-11T16:21:34.733Z,34.75
2018-05-11T16:24:03.057Z,34.87
2018-05-11T16:26:31.397Z,35.36
2018-05-11T16:28:59.740Z,35.39
2018-05-11T16:31:28.042Z,35.31
2018-05-11T16:33:56.404Z,35.88
2018-05-11T16:36:25.145Z,35.24
2018-05-11T16:38:53.491Z,35.74
2018-05-11T16:41:21.823Z,35.40
2018-05-11T16:43:50.196Z,35.93
2018-05-11T16:46:18.580Z,36.48
2018-05-11T16:48:46.987Z,36.53
2018-05-11T16:51:15.383Z,36.55
2018-05-11T16:53:43.684Z,36.30
2018-05-11T16:56:12.770Z,36.78
2018-05-11T16:58:42.133Z,36.71
2018-05-11T17:01:10.469Z,37.34
2018-05-11T17:03:39.533Z,37.96
2018-05-11T17:06:07.883Z,38.21
2018-05-11T17:08:36.207Z,36.72
2018-05-11T17:11:04.549Z,37.26
2018-05-11T17:13:32.900Z,37.88
2018-05-11T17:16:01.259Z,38.16
2018-05-11T17:18:29.587Z,38.27
2018-05-11T17:20:58.196Z,38.09
2018-05-11T17:23:26.492Z,38.82
2018-05-11T17:25:55.621Z,38.74
2018-05-11T17:28:24.255Z,38.62
2018-05-11T17:30:52.649Z,39.67
2018-05-11T17:33:21.748Z,40.09
2018-05-11T17:35:50.920Z,39.70
2018-05-11T17:38:19.242Z,39.48
2018-05-11T17:40:47.575Z,39.57
2018-05-11T17:43:16.123Z,40.04
2018-05-11T17:45:44.442Z,39.68
2018-05-11T17:48:12.783Z,39.44
2018-05-11T17:50:41.184Z,40.05
2018-05-11T17:53:09.522Z,40.24
2018-05-11T17:55:37.860Z,39.49
2018-05-11T17:58:06.248Z,40.16
2018-05-11T18:00:34.573Z,40.47
2018-05-11T18:03:03.022Z,40.39
2018-05-11T18:05:31.715Z,40.44
2018-05-11T18:08:00.060Z,40.67
2018-05-11T18:10:28.408Z,40.68
2018-05-11T18:12:56.826Z,40.90
2018-05-11T18:15:25.151Z,40.90
2018-05-11T18:17:53.480Z,40.81
2018-05-11T18:20:21.845Z,41.20
2018-05-11T18:22:50.168Z,41.30
2018-05-11T18:25:18.511Z,42.12
2018-05-11T18:27:46.967Z,42.44
2018-05-11T18:30:15.347Z,42.45
2018-05-11T18:32:43.683Z,42.76
2018-05-11T18:35:12.060Z,42.98
2018-05-11T18:37:40.405Z,43.94
2018-05-11T18:40:08.946Z,43.54
2018-05-11T18:42:37.397Z,43.40
2018-05-11T18:45:06.505Z,43.62
2018-05-11T18:47:35.613Z,43.80
2018-05-11T18:50:04.092Z,44.33
2018-05-11T18:52:32.478Z,44.06
2018-05-11T18:55:00.844Z,44.49
2018-05-11T18:57:29.971Z,44.52
2018-05-11T18:59:58.289Z,45.23
2018-05-11T19:02:26.622Z,45.34
2018-05-11T19:04:54.979Z,45.74
2018-05-11T19:07:24.076Z,45.75
2018-05-11T19:09:52.524Z,46.01
2018-05-11T19:12:21.223Z,46.36
2018-05-11T19:14:50.322Z,46.39
2018-05-11T19:17:19.445Z,46.35
2018-05-11T19:19:47.799Z,46.96
2018-05-11T19:22:16.138Z,47.12
2018-05-11T19:24:44.451Z,47.33
2018-05-11T19:27:12.808Z,47.59
2018-05-11T19:29:41.150Z,47.46
2018-05-11T19:32:09.508Z,47.13
2018-05-11T19:34:38.734Z,47.90
2018-05-11T19:37:07.061Z,48.45
2018-05-11T19:39:35.429Z,48.54
2018-05-11T19:42:03.763Z,49.14
2018-05-11T19:44:32.149Z,49.71
2018-05-11T19:47:00.508Z,50.05
2018-05-11T19:49:28.851Z,49.98
2018-05-11T19:51:57.179Z,50.33
2018-05-11T19:54:25.509Z,50.98
2018-05-11T19:56:54.046Z,51.59
2018-05-11T19:59:22.388Z,51.84
2018-05-11T20:01:51.554Z,52.01
2018-05-11T20:04:19.938Z,52.51
2018-05-11T20:06:48.283Z,53.22
2018-05-11T20:09:16.621Z,53.47
2018-05-11T20:11:44.984Z,53.54
2018-05-11T20:14:14.156Z,53.65
2018-05-11T20:16:42.509Z,54.06
2018-05-11T20:19:11.249Z,53.95
2018-05-11T20:21:40.372Z,54.39
2018-05-11T20:24:09.521Z,54.29
2018-05-11T20:26:38.044Z,54.35
2018-05-11T20:29:06.424Z,54.35
2018-05-11T20:31:35.682Z,54.75
2018-05-11T20:34:04.067Z,55.01
2018-05-11T20:36:32.432Z,54.94
2018-05-11T20:39:00.795Z,55.17
2018-05-11T20:41:29.244Z,55.29
2018-05-11T20:43:58.385Z,54.77
2018-05-11T20:46:26.732Z,55.44
2018-05-11T20:48:55.201Z,54.80
2018-05-11T20:51:23.463Z,55.37
2018-05-11T20:53:51.790Z,55.15
2018-05-11T20:56:20.136Z,55.02
2018-05-11T20:58:49.239Z,54.81
2018-05-11T21:01:18.319Z,54.77
2018-05-11T21:03:47.137Z,54.52
2018-05-11T21:06:15.491Z,54.12
2018-05-11T21:08:44.647Z,54.82
2018-05-11T21:11:13.048Z,54.11
2018-05-11T21:13:41.425Z,54.69
2018-05-11T21:16:09.759Z,54.97
2018-05-11T21:18:38.146Z,55.26
2018-05-11T21:21:06.571Z,55.37
2018-05-11T21:23:34.907Z,55.54
2018-05-11T21:26:03.510Z,55.30
2018-05-11T21:28:31.834Z,55.20
2018-05-11T21:31:00.923Z,55.91
2018-05-11T21:33:29.387Z,55.25
2018-05-11T21:35:57.718Z,54.46
2018-05-11T21:38:26.037Z,55.12
2018-05-11T21:40:54.392Z,54.75
2018-05-11T21:43:22.761Z,54.70
2018-05-11T21:45:51.073Z,54.69
2018-05-11T21:48:19.492Z,54.09
2018-05-11T21:50:48.572Z,55.15
2018-05-11T21:53:16.908Z,54.61
2018-05-11T21:55:45.262Z,55.01
2018-05-11T21:58:13.575Z,54.55
2018-05-11T22:00:41.936Z,54.65
2018-05-11T22:03:10.301Z,54.84
2018-05-11T22:05:38.603Z,55.35
2018-05-11T22:08:06.962Z,55.46
2018-05-11T22:10:35.586Z,55.14
2018-05-11T22:13:03.962Z,55.14
2018-05-11T22:15:32.290Z,54.50
2018-05-11T22:18:01.412Z,53.71
2018-05-11T22:20:29.703Z,53.98
2018-05-11T22:22:58.003Z,54.23
2018-05-11T22:25:26.351Z,54.23
2018-05-11T22:27:54.690Z,54.16
2018-05-11T22:30:23.015Z,54.23
2018-05-11T22:32:51.833Z,54.19
2018-05-11T22:35:20.154Z,54.54
2018-05-11T22:37:48.472Z,54.95
2018-05-11T22:40:16.823Z,54.80
2018-05-11T22:42:45.153Z,55.09
2018-05-11T22:45:13.474Z,54.97
2018-05-11T22:47:41.836Z,54.20
2018-05-11T22:50:10.168Z,54.49
2018-05-11T22:52:39.246Z,54.48
2018-05-11T22:55:07.864Z,54.85
2018-05-11T22:57:36.191Z,55.04
2018-05-11T23:00:04.502Z,55.39
2018-05-11T23:02:32.847Z,55.35
2018-05-11T23:05:01.173Z,55.15
2018-05-11T23:07:29.493Z,54.51
2018-05-11T23:09:58.646Z,55.07
2018-05-11T23:12:26.955Z,55.24
2018-05-11T23:14:55.275Z,54.98
2018-05-11T23:17:23.656Z,55.12
2018-05-11T23:19:51.965Z,54.83
2018-05-11T23:22:20.279Z,54.23
2018-05-11T23:24:49.405Z,53.77
2018-05-11T23:27:17.755Z,53.40
2018-05-11T23:29:46.841Z,54.23
2018-05-11T23:32:15.968Z,54.64
2018-05-11T23:34:44.290Z,54.78
2018-05-11T23:37:12.628Z,55.67
2018-05-11T23:39:41.218Z,55.00
2018-05-11T23:42:10.347Z,55.93
2018-05-11T23:44:38.914Z,56.50
2018-05-11T23:47:07.282Z,56.35
2018-05-11T23:49:35.611Z,55.98
2018-05-11T23:52:03.943Z,56.87
2018-05-11T23:54:32.278Z,55.88
2018-05-11T23:57:01.389Z,55.26
2018-05-11T23:59:29.770Z,55.68
